Time;durP1;ratioP1;P1;durP2;ratioP2;P2;SDS_P1;SDS_P2;PMS_P1;PMS_P2;Temp;Humidity;BMP_temperature;BMP_pressure;BME280_temperature;BME280_humidity;BME280_pressure;Samples;Min_cycle;Max_cycle;Signal;HPM_P1;HPM_P2
2022/05/30 00:00:28;;;;;;;6.68;2.67;;;;;;;18.04;71.47;98486.31;4958684;28;20086;-91
2022/05/30 00:02:53;;;;;;;3.33;2.17;;;;;;;17.96;71.69;98488.00;4942670;28;20031;-90
2022/05/30 00:05:20;;;;;;;8.18;2.55;;;;;;;17.95;71.88;98500.03;4958430;28;20085;-91
2022/05/30 00:07:46;;;;;;;5.93;2.35;;;;;;;18.03;70.75;98500.25;4939211;29;20421;-91
2022/05/30 00:10:11;;;;;;;3.35;2.25;;;;;;;18.10;70.74;98506.75;4955211;29;20074;-91
2022/05/30 00:12:37;;;;;;;6.18;2.30;;;;;;;17.96;71.49;98504.34;4955503;29;20450;-90
2022/05/30 00:15:07;;;;;;;4.25;2.00;;;;;;;17.98;71.02;98496.63;4955312;29;20015;-91
2022/05/30 00:17:34;;;;;;;3.25;1.90;;;;;;;18.09;70.57;98504.34;4955028;29;20434;-91
2022/05/30 00:19:59;;;;;;;4.47;1.85;;;;;;;18.13;70.58;98516.16;4955081;29;20041;-91
2022/05/30 00:22:25;;;;;;;3.67;1.90;;;;;;;17.98;71.35;98504.78;4938856;29;20023;-91
2022/05/30 00:24:50;;;;;;;2.60;2.15;;;;;;;18.01;71.52;98529.75;4955500;29;20089;-91
2022/05/30 00:27:16;;;;;;;4.97;2.10;;;;;;;18.01;71.07;98516.16;4954599;29;20023;-91
2022/05/30 00:29:41;;;;;;;2.55;1.90;;;;;;;18.04;70.80;98512.75;4955027;29;20023;-91
2022/05/30 00:32:07;;;;;;;3.03;1.80;;;;;;;18.08;70.73;98541.69;4939029;29;20034;-91
2022/05/30 00:34:33;;;;;;;2.08;1.67;;;;;;;18.00;71.68;98545.31;4954695;29;20429;-90
2022/05/30 00:37:00;;;;;;;4.28;1.98;;;;;;;17.79;72.26;98545.38;4954887;29;20512;-91
2022/05/30 00:39:25;;;;;;;3.92;2.20;;;;;;;17.60;72.47;98545.88;4954621;29;20027;-91
2022/05/30 00:41:51;;;;;;;3.67;2.05;;;;;;;17.64;73.16;98557.69;4938796;29;20027;-91
2022/05/30 00:44:16;;;;;;;3.63;2.25;;;;;;;17.43;73.09;98538.69;4953841;28;20019;-92
2022/05/30 00:46:42;;;;;;;7.15;2.63;;;;;;;17.35;73.15;98528.66;4954507;29;20027;-91
2022/05/30 00:49:12;;;;;;;5.03;2.47;;;;;;;17.45;73.04;98541.03;4954360;29;20437;-90
2022/05/30 00:51:48;;;;;;;4.45;3.03;;;;;;;17.50;72.81;98541.63;4938175;29;20383;-91
2022/05/30 00:54:28;;;;;;;9.48;6.78;;;;;;;17.45;72.85;98547.31;4954111;29;20086;-91
2022/05/30 00:56:56;;;;;;;8.00;6.30;;;;;;;17.46;72.62;98548.09;4938318;29;20020;-90
2022/05/30 00:59:21;;;;;;;9.65;7.07;;;;;;;17.45;72.23;98544.59;4954478;29;20027;-91
2022/05/30 01:01:47;;;;;;;8.85;6.53;;;;;;;17.50;73.15;98552.53;4954719;29;20544;-91
2022/05/30 01:06:58;;;;;;;6.40;3.67;;;;;;;17.42;73.06;98558.84;4954279;28;20102;-91
2022/05/30 01:09:27;;;;;;;9.50;3.80;;;;;;;17.30;73.58;98551.41;4954007;29;20446;-91
2022/05/30 01:12:04;;;;;;;3.70;2.95;;;;;;;17.34;73.38;98552.34;4954049;29;20084;-91
2022/05/30 01:14:31;;;;;;;5.50;2.80;;;;;;;17.40;73.11;98550.22;4954142;29;20076;-91
2022/05/30 01:16:57;;;;;;;3.63;3.25;;;;;;;17.30;73.77;98558.78;4938331;29;20027;-90
2022/05/30 01:19:53;;;;;;;4.70;3.72;;;;;;;17.48;73.42;98573.06;4953886;29;20029;-91
2022/05/30 01:22:38;;;;;;;6.50;3.35;;;;;;;17.36;73.74;98554.72;4953943;28;20475;-91
2022/05/30 01:25:17;;;;;;;4.25;2.80;;;;;;;17.56;73.04;98561.28;4953957;29;20078;-90
2022/05/30 01:28:24;;;;;;;8.85;2.70;;;;;;;17.48;73.22;98554.78;4970030;28;20505;-91
2022/05/30 01:30:49;;;;;;;10.88;3.00;;;;;;;17.31;73.88;98550.31;4943797;29;20112;-90
2022/05/30 01:33:15;;;;;;;7.10;2.70;;;;;;;17.28;74.32;98555.59;4937515;29;20023;-91
2022/05/30 01:35:41;;;;;;;4.88;2.63;;;;;;;17.35;74.27;98558.59;4937925;29;20058;-91
2022/05/30 01:38:06;;;;;;;3.35;2.78;;;;;;;17.35;73.91;98561.31;4953440;29;20031;-91
2022/05/30 01:40:32;;;;;;;5.15;2.75;;;;;;;17.29;73.88;98549.84;4937612;29;20027;-91
2022/05/30 01:42:57;;;;;;;5.13;2.55;;;;;;;17.24;74.28;98551.94;4953813;29;20387;-92
2022/05/30 01:45:24;;;;;;;4.72;2.58;;;;;;;17.31;73.80;98560.41;4953668;29;20023;-91
2022/05/30 01:47:49;;;;;;;9.45;2.63;;;;;;;17.24;74.00;98547.31;4953786;29;20401;-90
2022/05/30 01:50:15;;;;;;;4.10;2.60;;;;;;;17.46;73.48;98565.22;4953556;29;20031;-91
2022/05/30 01:52:40;;;;;;;7.03;3.45;;;;;;;17.29;73.86;98549.84;4937341;29;20023;-91
2022/05/30 01:55:06;;;;;;;6.07;2.40;;;;;;;17.23;74.07;98550.38;4938690;29;20031;-91
2022/05/30 01:57:32;;;;;;;4.28;2.33;;;;;;;17.23;73.24;98556.59;4941988;29;20082;-91
2022/05/30 01:59:57;;;;;;;9.88;2.72;;;;;;;17.27;74.10;98570.34;4941413;29;20034;-91
2022/05/30 02:02:23;;;;;;;4.65;2.90;;;;;;;17.20;74.41;98570.84;4941511;29;20486;-90
2022/05/30 02:04:48;;;;;;;6.55;2.97;;;;;;;17.07;74.16;98580.88;4941749;29;20085;-91
2022/05/30 02:07:14;;;;;;;4.00;3.00;;;;;;;17.11;73.92;98567.41;4957340;28;20047;-92
2022/05/30 02:09:39;;;;;;;6.50;3.40;;;;;;;16.98;75.00;98582.09;4941322;29;20023;-91
2022/05/30 02:12:05;;;;;;;5.10;3.60;;;;;;;16.95;75.24;98578.91;4957136;29;20035;-90
2022/05/30 02:14:31;;;;;;;5.63;3.60;;;;;;;17.00;74.67;98582.56;4957513;29;20019;-91
2022/05/30 02:17:04;;;;;;;5.28;3.53;;;;;;;17.01;74.38;98578.69;4957341;29;20031;-91
2022/05/30 02:19:44;;;;;;;7.40;3.92;;;;;;;16.91;74.77;98574.44;4942254;29;20405;-91
2022/05/30 02:22:14;;;;;;;9.85;3.95;;;;;;;16.94;74.89;98587.38;4956930;29;20113;-91
2022/05/30 02:24:40;;;;;;;6.95;3.35;;;;;;;16.94;75.12;98607.22;4956994;29;20027;-91
2022/05/30 02:27:06;;;;;;;6.30;3.45;;;;;;;16.85;75.21;98595.59;4940962;29;20027;-91
2022/05/30 02:29:32;;;;;;;5.75;3.40;;;;;;;16.89;74.83;98610.13;4957004;29;20019;-91
2022/05/30 02:31:57;;;;;;;8.23;3.38;;;;;;;16.84;75.07;98609.50;4940868;29;20473;-91
2022/05/30 02:37:07;;;;;;;6.75;3.83;;;;;;;16.87;74.79;98636.84;4957535;29;20098;-91
2022/05/30 02:39:32;;;;;;;11.63;4.43;;;;;;;16.73;74.58;98622.66;4940875;29;20122;-90
2022/05/30 02:41:58;;;;;;;5.35;3.88;;;;;;;16.73;75.22;98625.38;4956735;29;20482;-91
2022/05/30 02:44:24;;;;;;;5.07;4.13;;;;;;;16.79;74.61;98632.22;4956803;29;20027;-90
2022/05/30 02:46:51;;;;;;;7.43;4.25;;;;;;;16.73;74.87;98614.50;4940536;29;20023;-91
2022/05/30 02:49:17;;;;;;;14.23;3.95;;;;;;;16.70;74.98;98621.38;4956733;29;20035;-90
2022/05/30 02:51:43;;;;;;;15.73;4.50;;;;;;;16.75;75.13;98632.06;4956560;29;20082;-90
2022/05/30 02:54:09;;;;;;;7.28;5.50;;;;;;;16.75;75.02;98631.28;4956492;29;20024;-91
2022/05/30 02:56:34;;;;;;;8.30;5.03;;;;;;;16.99;73.46;98643.50;4956180;29;20034;-90
2022/05/30 02:59:01;;;;;;;5.50;4.28;;;;;;;17.16;72.41;98659.69;4956397;29;20031;-90
2022/05/30 03:01:26;;;;;;;6.68;4.90;;;;;;;17.07;72.10;98648.88;4956554;29;20023;-90
2022/05/30 03:03:52;;;;;;;7.18;4.78;;;;;;;17.28;71.99;98662.50;4956271;29;20451;-91
2022/05/30 03:06:17;;;;;;;8.10;5.15;;;;;;;17.19;72.38;98661.00;4939312;29;20047;-90
2022/05/30 03:08:43;;;;;;;8.80;5.50;;;;;;;17.05;73.14;98669.38;4956463;29;20027;-91
2022/05/30 03:11:10;;;;;;;7.22;5.15;;;;;;;16.94;73.25;98663.53;4956383;29;20092;-91
2022/05/30 03:13:35;;;;;;;10.98;7.30;;;;;;;16.95;73.74;98673.25;4941018;29;20022;-91
2022/05/30 03:16:01;;;;;;;13.20;6.97;;;;;;;16.93;73.54;98672.78;4940450;29;20358;-91
2022/05/30 03:18:26;;;;;;;8.98;6.53;;;;;;;16.87;73.99;98680.34;4956057;29;20553;-91
2022/05/30 03:20:52;;;;;;;7.47;4.68;;;;;;;16.86;73.54;98678.75;4940292;29;20054;-91
2022/05/30 03:23:17;;;;;;;10.32;4.38;;;;;;;16.84;72.91;98680.22;4956014;29;20019;-90
2022/05/30 03:25:43;;;;;;;8.35;4.95;;;;;;;16.77;73.71;98678.75;4956468;29;20098;-90
2022/05/30 03:28:08;;;;;;;11.43;4.68;;;;;;;16.71;73.68;98666.47;4945477;29;20024;-90
2022/05/30 03:30:37;;;;;;;10.60;4.80;;;;;;;16.73;73.29;98687.91;4905435;29;20024;-89
2022/05/30 03:33:04;;;;;;;6.80;4.88;;;;;;;16.92;72.80;98690.25;4905496;29;20082;-90
2022/05/30 03:35:30;;;;;;;9.20;4.00;;;;;;;16.98;72.23;98680.78;4904767;29;20403;-90
2022/05/30 03:37:55;;;;;;;6.85;4.43;;;;;;;16.79;73.52;98681.16;4905079;29;20130;-91
2022/05/30 03:40:21;;;;;;;9.52;4.50;;;;;;;16.88;74.09;98703.69;4905075;29;20023;-90
2022/05/30 03:42:46;;;;;;;11.68;4.78;;;;;;;16.74;73.71;98684.84;4905451;29;20024;-92
2022/05/30 03:45:13;;;;;;;6.93;4.90;;;;;;;16.85;74.32;98700.81;4906458;29;20027;-92
2022/05/30 03:47:43;;;;;;;11.52;4.93;;;;;;;16.80;74.64;98701.78;4905204;29;20091;-92
2022/05/30 03:50:11;;;;;;;6.72;4.68;;;;;;;16.88;74.24;98706.41;4914255;28;20031;-92
2022/05/30 03:52:36;;;;;;;7.90;4.90;;;;;;;16.57;74.57;98684.91;4941140;28;20078;-91
2022/05/30 03:55:06;;;;;;;79.78;8.43;;;;;;;16.73;73.85;98699.56;4943294;28;20109;-92
2022/05/30 03:57:34;;;;;;;8.27;5.20;;;;;;;16.95;73.35;98711.34;4943610;28;20023;-94
2022/05/30 04:00:00;;;;;;;12.10;4.53;;;;;;;16.94;72.93;98698.88;4946833;28;20030;-96
2022/05/30 04:02:26;;;;;;;17.88;4.65;;;;;;;17.22;72.67;98729.13;4946155;28;20038;-95
2022/05/30 04:04:52;;;;;;;11.95;5.82;;;;;;;16.89;74.15;98718.06;4963047;28;20023;-96
2022/05/30 04:07:17;;;;;;;10.23;5.57;;;;;;;16.78;74.93;98729.28;4954829;28;20039;-89
2022/05/30 04:09:43;;;;;;;11.35;5.45;;;;;;;16.73;74.33;98724.03;4959476;28;20018;-94
2022/05/30 04:12:09;;;;;;;8.02;5.50;;;;;;;16.71;74.04;98722.78;4958613;28;20026;-91
2022/05/30 04:14:35;;;;;;;9.48;5.65;;;;;;;16.93;73.34;98719.84;4959057;28;20054;-91
2022/05/30 04:17:00;;;;;;;7.75;5.50;;;;;;;16.92;73.77;98723.66;4959212;28;20512;-93
2022/05/30 04:19:26;;;;;;;11.93;5.63;;;;;;;17.03;72.63;98721.38;4959638;28;20026;-93
2022/05/30 04:21:51;;;;;;;9.90;5.70;;;;;;;17.20;72.92;98739.53;4957827;28;20062;-90
2022/05/30 04:24:21;;;;;;;191.13;31.92;;;;;;;17.24;73.38;98751.34;4939684;28;20031;-94
2022/05/30 04:26:48;;;;;;;68.72;16.90;;;;;;;17.23;72.95;98724.50;4941205;29;20027;-93
2022/05/30 04:29:13;;;;;;;18.20;7.72;;;;;;;17.17;73.68;98724.66;4923227;29;20122;-90
2022/05/30 04:31:39;;;;;;;20.65;11.00;;;;;;;17.19;73.28;98726.28;4937899;29;20111;-90
2022/05/30 04:34:04;;;;;;;17.67;8.93;;;;;;;17.30;72.12;98727.50;4922529;29;20035;-90
2022/05/30 04:36:30;;;;;;;40.40;10.27;;;;;;;17.62;71.40;98736.91;4936049;28;20033;-90
2022/05/30 04:38:55;;;;;;;167.40;31.27;;;;;;;17.75;71.39;98733.13;4921864;29;20035;-91
2022/05/30 04:41:21;;;;;;;25.25;8.68;;;;;;;17.89;70.92;98740.28;4920100;29;20027;-92
2022/05/30 04:43:46;;;;;;;124.18;22.55;;;;;;;18.25;70.11;98774.25;4938203;29;20055;-92
2022/05/30 04:46:19;;;;;;;72.88;15.57;;;;;;;18.30;69.68;98755.78;4923204;29;20709;-92
2022/05/30 04:48:45;;;;;;;33.75;7.15;;;;;;;18.39;69.40;98766.59;4924736;29;20027;-92
2022/05/30 04:51:10;;;;;;;29.17;7.20;;;;;;;18.45;69.32;98772.63;4926458;28;20035;-92
2022/05/30 04:53:36;;;;;;;26.02;7.50;;;;;;;18.38;69.23;98757.59;4943958;29;20027;-92
2022/05/30 04:56:03;;;;;;;19.70;8.02;;;;;;;18.61;68.51;98757.22;4964971;28;20028;-93
2022/05/30 04:58:29;;;;;;;15.35;9.27;;;;;;;18.86;67.44;98774.47;4937988;29;20466;-92
2022/05/30 05:01:01;;;;;;;18.23;10.27;;;;;;;18.77;67.86;98768.28;4922940;29;20024;-93
2022/05/30 05:03:28;;;;;;;17.80;8.63;;;;;;;18.84;67.45;98776.72;4920701;29;20036;-93
2022/05/30 05:06:04;;;;;;;18.85;9.55;;;;;;;18.77;68.54;98790.09;4933884;28;20027;-91
2022/05/30 05:09:17;;;;;;;20.90;7.88;;;;;;;19.04;68.07;98793.38;4934714;29;20027;-92
2022/05/30 05:11:43;;;;;;;15.52;7.93;;;;;;;19.09;68.55;98798.59;4925462;28;20030;-94
2022/05/30 05:14:09;;;;;;;17.67;5.90;;;;;;;19.01;68.00;98794.88;4940191;29;20022;-91
2022/05/30 05:16:35;;;;;;;14.30;5.25;;;;;;;18.96;68.33;98787.66;4924250;29;20401;-93
2022/05/30 05:19:01;;;;;;;17.23;3.75;;;;;;;19.26;67.88;98822.16;4908266;29;20031;-91
2022/05/30 05:21:37;;;;;;;5.85;2.35;;;;;;;19.33;66.84;98815.00;4924146;29;20478;-93
2022/05/30 05:24:08;;;;;;;8.95;2.58;;;;;;;19.49;66.92;98825.28;4908212;29;20027;-94
2022/05/30 05:26:36;;;;;;;8.80;2.58;;;;;;;19.35;65.68;98804.53;4908178;29;20056;-92
2022/05/30 05:29:01;;;;;;;11.65;2.60;;;;;;;19.38;65.87;98816.72;4889856;29;20028;-94
2022/05/30 05:31:47;;;;;;;5.07;2.40;;;;;;;19.33;66.28;98825.13;4935024;28;20110;-93
2022/05/30 05:34:14;;;;;;;16.20;4.00;;;;;;;19.47;66.75;98822.09;4942207;28;20035;-94
2022/05/30 05:36:42;;;;;;;8.90;4.13;;;;;;;19.38;66.61;98817.53;4943345;28;20092;-94
2022/05/30 05:39:08;;;;;;;9.40;1.80;;;;;;;19.56;65.06;98834.47;4943290;28;20027;-96
2022/05/30 05:41:34;;;;;;;4.32;1.80;;;;;;;19.49;64.89;98825.28;4944249;28;20062;-93
2022/05/30 05:44:03;;;;;;;4.97;2.00;;;;;;;19.58;64.99;98847.78;4943013;28;20397;-96
2022/05/30 05:46:29;;;;;;;3.75;1.90;;;;;;;19.52;65.16;98838.22;4942908;28;20026;-93
2022/05/30 05:48:55;;;;;;;3.40;1.60;;;;;;;19.51;63.97;98831.19;4943376;28;20061;-95
2022/05/30 05:51:21;;;;;;;6.10;1.83;;;;;;;19.47;64.44;98831.06;4943617;28;20105;-94
2022/05/30 05:53:47;;;;;;;7.88;1.75;;;;;;;19.63;64.34;98850.31;4942353;28;20027;-93
2022/05/30 05:56:17;;;;;;;3.35;1.75;;;;;;;19.49;64.27;98842.44;4942059;28;20038;-95
2022/05/30 05:58:43;;;;;;;7.65;1.80;;;;;;;19.27;65.06;98824.56;4941491;28;20027;-93
2022/05/30 06:01:20;;;;;;;3.85;1.40;;;;;;;19.46;65.01;98851.31;4937297;29;20023;-91
2022/05/30 06:03:46;;;;;;;3.97;1.90;;;;;;;19.39;65.31;98856.53;4932103;29;20035;-92
2022/05/30 06:06:12;;;;;;;7.18;2.40;;;;;;;19.40;65.35;98863.59;4908513;29;20052;-90
2022/05/30 06:08:37;;;;;;;4.57;2.10;;;;;;;19.39;65.32;98856.53;4925814;29;20019;-91
2022/05/30 06:11:05;;;;;;;5.97;2.05;;;;;;;19.28;65.97;98848.00;4954538;28;20523;-96
2022/05/30 06:13:32;;;;;;;3.63;2.30;;;;;;;19.46;65.46;98875.09;4958990;28;20070;-93
2022/05/30 06:15:57;;;;;;;4.22;1.85;;;;;;;19.49;65.51;98882.63;4960316;28;20038;-93
2022/05/30 06:18:23;;;;;;;3.83;2.47;;;;;;;19.36;64.71;98841.66;4976271;28;20511;-93
2022/05/30 06:20:58;;;;;;;4.15;2.28;;;;;;;19.55;64.62;98879.31;4974832;28;20560;-92
2022/05/30 06:23:24;;;;;;;3.30;2.20;;;;;;;19.47;64.41;98852.13;4957788;28;20038;-94
2022/05/30 06:25:50;;;;;;;4.50;2.28;;;;;;;19.84;64.21;98863.88;4960727;28;20037;-92
2022/05/30 06:28:15;;;;;;;6.75;3.42;;;;;;;20.14;63.61;98878.06;4959886;28;20129;-93
2022/05/30 06:30:41;;;;;;;3.58;2.10;;;;;;;20.44;62.60;98893.38;4945707;29;20062;-93
2022/05/30 06:33:06;;;;;;;11.68;3.30;;;;;;;20.32;62.74;98864.91;4937416;29;20027;-93
2022/05/30 06:35:32;;;;;;;5.50;2.33;;;;;;;20.58;62.83;98888.34;4944211;28;20401;-93
2022/05/30 06:38:02;;;;;;;8.90;2.60;;;;;;;20.52;61.83;98867.81;4931104;28;20093;-93
2022/05/30 06:40:28;;;;;;;15.35;3.30;;;;;;;20.46;62.66;98861.00;4952282;29;20035;-90
2022/05/30 06:42:53;;;;;;;8.75;2.63;;;;;;;20.35;61.58;98866.94;4937075;29;20059;-93
2022/05/30 06:45:19;;;;;;;7.28;3.53;;;;;;;20.31;61.85;98890.66;4939624;29;20071;-91
2022/05/30 06:47:45;;;;;;;10.43;3.33;;;;;;;20.49;61.96;98893.13;4954698;29;20043;-91
2022/05/30 06:50:10;;;;;;;4.30;2.90;;;;;;;20.60;61.55;98899.72;4943348;28;20041;-92
2022/05/30 06:52:51;;;;;;;3.47;2.50;;;;;;;20.65;61.68;98887.75;4954450;28;20038;-96
2022/05/30 06:55:26;;;;;;;6.05;2.60;;;;;;;20.37;62.11;98892.00;4946217;28;20043;-94
2022/05/30 07:00:38;;;;;;;6.07;2.55;;;;;;;20.15;62.82;98890.59;4944553;29;20057;-93
2022/05/30 07:03:07;;;;;;;6.05;2.88;;;;;;;20.21;63.16;98893.88;4928176;29;20035;-94
2022/05/30 07:05:36;;;;;;;5.65;2.75;;;;;;;20.11;63.12;98883.44;4928564;29;20118;-91
2022/05/30 07:08:02;;;;;;;7.70;3.20;;;;;;;20.11;63.64;98908.81;4929537;29;20135;-92
2022/05/30 07:10:28;;;;;;;4.72;2.90;;;;;;;20.13;63.62;98887.41;4942362;29;20066;-95
2022/05/30 07:12:53;;;;;;;4.93;2.50;;;;;;;20.38;62.68;98918.22;4942488;29;20019;-94
2022/05/30 07:15:19;;;;;;;8.40;2.95;;;;;;;20.35;62.89;98940.00;4941694;29;20027;-92
2022/05/30 07:17:50;;;;;;;4.05;2.75;;;;;;;20.09;63.36;98921.25;4957801;29;20027;-93
2022/05/30 07:20:17;;;;;;;5.93;2.88;;;;;;;20.14;63.33;98926.47;4941976;29;20387;-94
2022/05/30 07:22:42;;;;;;;3.50;2.30;;;;;;;20.24;63.10;98939.66;4959553;29;20170;-92
2022/05/30 07:25:11;;;;;;;4.10;2.20;;;;;;;20.00;63.13;98921.34;4941449;29;20123;-93
2022/05/30 07:27:37;;;;;;;5.28;2.05;;;;;;;20.07;63.46;98934.44;4942288;29;20095;-92
2022/05/30 07:30:04;;;;;;;3.90;2.15;;;;;;;20.03;63.50;98928.88;4950625;28;20052;-94
2022/05/30 07:32:46;;;;;;;5.82;2.10;;;;;;;20.03;63.70;98936.28;4963755;28;20117;-92
2022/05/30 07:35:15;;;;;;;3.72;1.92;;;;;;;19.94;63.56;98942.66;4980760;28;20109;-94
2022/05/30 07:37:42;;;;;;;4.43;1.88;;;;;;;19.87;63.76;98934.22;4976612;28;20062;-89
2022/05/30 07:40:08;;;;;;;4.50;1.90;;;;;;;20.01;63.76;98950.28;4962884;28;20075;-93
2022/05/30 07:42:33;;;;;;;5.00;2.70;;;;;;;19.96;64.55;98959.50;4964646;28;20023;-92
2022/05/30 07:44:59;;;;;;;6.50;2.50;;;;;;;20.03;64.52;98963.59;4976402;28;20173;-94
2022/05/30 07:47:27;;;;;;;7.35;2.10;;;;;;;20.05;63.80;98967.59;4976678;28;20031;-94
2022/05/30 07:50:02;;;;;;;6.53;3.38;;;;;;;19.93;63.67;98948.44;4961732;28;20054;-93
2022/05/30 07:52:29;;;;;;;4.88;2.05;;;;;;;19.82;63.96;98952.75;4964410;28;20034;-95
2022/05/30 07:54:55;;;;;;;13.85;7.53;;;;;;;19.97;64.47;98963.81;4945737;29;20045;-94
2022/05/30 07:57:50;;;;;;;6.00;2.40;;;;;;;19.95;64.42;98979.75;4944341;28;20166;-93
2022/05/30 08:00:10;;;;;;;15.18;12.50;;;;;;;19.75;63.47;98943.19;4938676;28;20123;-90
2022/05/30 08:02:37;;;;;;;7.78;2.47;;;;;;;19.82;64.34;98961.78;4970835;28;20031;-92
2022/05/30 08:05:04;;;;;;;4.03;2.67;;;;;;;19.98;63.48;98961.88;4966584;28;20054;-92
2022/05/30 08:07:30;;;;;;;14.50;5.35;;;;;;;20.01;64.08;98968.63;4947146;29;20067;-93
2022/05/30 08:09:58;;;;;;;6.22;2.20;;;;;;;20.21;62.50;98981.34;4955828;29;20032;-91
2022/05/30 08:12:24;;;;;;;6.18;1.90;;;;;;;20.34;62.03;98974.75;4954262;28;20030;-92
2022/05/30 08:17:40;;;;;;;2.80;1.95;;;;;;;20.46;61.83;98979.41;4960538;29;20066;-92
2022/05/30 08:20:12;;;;;;;4.85;2.55;;;;;;;20.37;60.86;98982.25;4941958;29;20035;-93
2022/05/30 08:22:37;;;;;;;3.38;1.33;;;;;;;20.38;60.55;98980.34;4927729;29;20031;-92
2022/05/30 08:25:28;;;;;;;3.85;1.55;;;;;;;20.36;60.94;98997.06;4925047;28;20522;-93
2022/05/30 08:27:54;;;;;;;7.28;1.80;;;;;;;20.08;61.58;98980.56;4940146;29;20151;-96
2022/05/30 08:30:20;;;;;;;9.10;2.97;;;;;;;20.03;61.39;98974.53;4925784;29;20506;-94
2022/05/30 08:32:45;;;;;;;5.85;2.70;;;;;;;20.29;61.21;99001.50;4924488;29;20023;-94
2022/05/30 08:35:13;;;;;;;3.70;1.73;;;;;;;20.16;61.22;98990.56;4936288;28;20485;-94
2022/05/30 08:38:12;;;;;;;3.47;1.80;;;;;;;20.24;61.72;99001.75;4937621;29;20038;-94
2022/05/30 08:43:37;;;;;;;9.07;2.15;;;;;;;20.19;62.56;99006.31;4925999;29;20038;-94
2022/05/30 08:46:22;;;;;;;19.85;17.90;;;;;;;20.27;61.67;99006.53;4922121;29;20046;-96
2022/05/30 08:49:08;;;;;;;3.65;2.60;;;;;;;20.25;60.93;99000.59;4925881;29;20034;-95
2022/05/30 08:51:53;;;;;;;5.22;1.90;;;;;;;20.56;60.35;99030.09;4927196;29;20027;-94
2022/05/30 08:54:44;;;;;;;4.32;1.90;;;;;;;20.51;60.14;99019.41;4940096;29;20058;-94
2022/05/30 08:57:34;;;;;;;8.80;4.55;;;;;;;20.61;60.68;99032.66;4927259;29;20031;-93
2022/05/30 09:00:22;;;;;;;6.85;2.90;;;;;;;20.94;59.72;99045.38;4895417;29;20032;-93
2022/05/30 09:02:52;;;;;;;4.55;2.10;;;;;;;20.90;59.17;99036.25;4939656;29;20027;-94
2022/05/30 09:05:24;;;;;;;3.28;1.80;;;;;;;21.15;58.82;99056.13;4938105;29;20027;-96
2022/05/30 09:07:51;;;;;;;;;;;;;;;21.13;58.82;99045.53;4926700;29;20118;-93
2022/05/30 09:10:29;;;;;;;18.20;14.52;;;;;;;21.18;57.32;99039.78;4940779;29;20356;-94
2022/05/30 09:13:13;;;;;;;6.50;2.67;;;;;;;21.51;56.66;99054.44;4909774;29;20095;-95
2022/05/30 09:16:02;;;;;;;5.57;2.65;;;;;;;21.52;56.35;99034.91;4923367;29;20150;-96
2022/05/30 09:18:38;;;;;;;4.25;1.70;;;;;;;21.50;55.95;99039.94;4927373;29;20023;-94
2022/05/30 09:21:04;;;;;;;4.72;2.40;;;;;;;21.62;55.34;99041.03;4938478;29;20042;-94
2022/05/30 09:23:31;;;;;;;3.05;1.95;;;;;;;21.73;54.94;99031.16;4922927;29;20067;-94
2022/05/30 09:26:03;;;;;;;2.67;2.03;;;;;;;21.64;55.50;99034.03;4938322;29;20039;-95
2022/05/30 09:28:41;;;;;;;4.70;1.67;;;;;;;21.69;54.89;99033.78;4912887;29;20449;-94
2022/05/30 09:31:22;;;;;;;7.20;1.83;;;;;;;21.86;54.26;99057.34;4927508;29;20047;-96
2022/05/30 09:33:54;;;;;;;5.90;3.00;;;;;;;21.77;54.27;99041.06;4941250;29;20035;-94
2022/05/30 09:36:38;;;;;;;3.50;1.70;;;;;;;21.72;54.82;99054.22;4923019;29;20031;-93
2022/05/30 09:39:06;;;;;;;5.78;1.90;;;;;;;21.48;55.74;99075.09;4907859;29;20126;-93
2022/05/30 09:41:37;;;;;;;2.95;1.70;;;;;;;21.42;56.04;99072.94;4911432;28;20028;-91
2022/05/30 09:44:27;;;;;;;4.20;1.85;;;;;;;21.54;55.08;99045.50;4975118;28;20026;-93
2022/05/30 09:46:57;;;;;;;5.10;1.92;;;;;;;21.87;55.18;99061.69;4948616;29;20031;-94
2022/05/30 09:49:43;;;;;;;5.40;1.95;;;;;;;22.00;53.86;99056.91;4925193;29;20035;-95
2022/05/30 09:52:41;;;;;;;2.92;2.03;;;;;;;22.27;54.00;99063.50;4944104;29;20038;-93
2022/05/30 09:55:27;;;;;;;3.13;1.83;;;;;;;22.33;53.94;99072.22;4957119;29;20035;-94
2022/05/30 09:57:53;;;;;;;3.03;1.83;;;;;;;22.44;53.45;99067.03;4938154;29;20147;-91
2022/05/30 10:00:47;;;;;;;4.60;1.55;;;;;;;22.48;53.53;99070.66;4921593;29;20414;-94
2022/05/30 10:03:29;;;;;;;2.60;1.90;;;;;;;22.45;52.94;99060.38;4955352;28;20031;-91
2022/05/30 10:06:19;;;;;;;14.98;12.10;;;;;;;22.59;53.83;99067.00;4948216;28;20118;-96
2022/05/30 10:08:46;;;;;;;6.00;2.40;;;;;;;22.48;53.75;99052.25;4949464;29;20023;-92
2022/05/30 10:11:27;;;;;;;5.22;1.88;;;;;;;22.11;53.46;99046.22;4970882;28;20057;-92
2022/05/30 10:13:54;;;;;;;3.65;2.00;;;;;;;22.12;54.05;99042.31;4916069;29;20039;-92
2022/05/30 10:16:33;;;;;;;5.90;2.10;;;;;;;22.49;54.07;99058.50;4956072;28;20066;-92
2022/05/30 10:19:13;;;;;;;8.55;2.67;;;;;;;22.48;52.99;99043.22;4977570;28;20027;-93
2022/05/30 10:28:32;;;;;;;43.63;30.80;;;;;;;22.98;53.47;99055.31;4949034;29;19918;-95
2022/05/30 10:34:23;;;;;;;4.43;1.80;;;;;;;23.28;51.93;99035.53;4951655;29;20096;-93
2022/05/30 10:37:37;;;;;;;4.43;1.80;;;;;;;23.53;51.44;99060.75;4927717;29;20083;-96
2022/05/30 10:40:16;;;;;;;9.15;3.72;;;;;;;23.40;51.46;99060.91;4925135;29;20042;-95
2022/05/30 10:43:16;;;;;;;10.13;2.65;;;;;;;23.29;51.19;99043.44;4941944;29;20087;-96
2022/05/30 10:45:46;;;;;;;7.30;2.35;;;;;;;23.25;50.90;99022.56;4929875;29;20075;-91
2022/05/30 10:48:24;;;;;;;4.63;1.98;;;;;;;23.58;51.05;99050.28;4938940;29;20034;-91
2022/05/30 10:51:34;;;;;;;12.30;2.03;;;;;;;23.30;49.84;99022.25;4945451;28;20034;-96
2022/05/30 10:54:24;;;;;;;5.85;2.10;;;;;;;23.52;51.14;99050.94;4941548;28;20055;-95
2022/05/30 10:59:57;;;;;;;4.63;2.20;;;;;;;23.25;51.07;99031.56;5207158;23;20533;-96
2022/05/30 11:02:29;;;;;;;4.68;1.95;;;;;;;23.37;50.39;99045.16;4923295;29;20446;-94
2022/05/30 11:05:06;;;;;;;5.80;2.47;;;;;;;23.47;50.95;99052.03;4913210;29;20548;-94
2022/05/30 11:07:57;;;;;;;3.97;1.90;;;;;;;23.50;49.79;99050.50;4955283;29;20482;-96
2022/05/30 11:10:50;;;;;;;3.67;1.85;;;;;;;23.62;49.59;99053.09;4911613;29;20032;-96
2022/05/30 11:13:39;;;;;;;4.55;2.30;;;;;;;23.85;49.44;99047.66;4891901;29;20060;-96
2022/05/30 11:16:44;;;;;;;9.35;2.60;;;;;;;23.62;48.58;99033.88;4873325;29;20032;-96
2022/05/30 11:19:47;;;;;;;8.00;2.10;;;;;;;23.90;48.08;99047.34;4884776;29;20037;-96
2022/05/30 11:22:40;;;;;;;4.65;2.13;;;;;;;23.73;48.45;99023.06;4891448;29;20037;-95
2022/05/30 11:28:43;;;;;;;5.53;2.97;;;;;;;23.74;49.22;99036.44;2012840;23;20329;-91
2022/05/30 11:31:14;;;;;;;4.97;2.00;;;;;;;23.58;48.90;99008.25;4973825;28;20563;-89
2022/05/30 11:33:47;;;;;;;4.65;2.17;;;;;;;23.86;48.41;99027.25;4941104;29;20055;-91
2022/05/30 11:36:34;;;;;;;7.13;3.00;;;;;;;23.83;48.68;99027.19;4965541;28;20035;-91
2022/05/30 11:39:38;;;;;;;4.78;2.10;;;;;;;23.76;48.89;99014.91;4978273;28;20034;-91
2022/05/30 11:42:22;;;;;;;7.10;2.38;;;;;;;24.16;48.34;99032.09;4924839;29;20078;-91
2022/05/30 11:44:52;;;;;;;5.30;1.90;;;;;;;24.04;48.17;99029.53;4917296;29;20517;-91
2022/05/30 11:47:42;;;;;;;7.43;2.55;;;;;;;24.18;48.75;99024.25;4908172;29;20100;-95
2022/05/30 11:53:14;;;;;;;7.45;1.88;;;;;;;24.52;45.75;99029.91;5214603;23;20517;-96
2022/05/30 11:56:14;;;;;;;6.05;2.08;;;;;;;24.57;46.32;99027.63;4957359;29;20118;-95
2022/05/30 11:59:09;;;;;;;13.80;3.42;;;;;;;24.67;46.54;99022.66;4967555;28;20022;-94
2022/05/30 12:01:38;;;;;;;4.93;2.40;;;;;;;24.76;44.88;99026.72;4964253;28;20078;-94
2022/05/30 12:04:28;;;;;;;4.60;2.10;;;;;;;24.91;45.17;99029.69;4912056;29;20047;-93
2022/05/30 12:07:06;;;;;;;15.02;11.23;;;;;;;24.94;43.80;99029.69;4925689;29;20031;-91
2022/05/30 12:09:41;;;;;;;12.35;9.82;;;;;;;24.67;44.64;99023.44;4939103;29;20027;-92
2022/05/30 12:12:13;;;;;;;4.30;2.50;;;;;;;24.97;44.48;99028.97;4922638;29;20027;-92
2022/05/30 12:15:08;;;;;;;7.25;2.50;;;;;;;24.87;45.94;99018.59;4940646;29;20049;-92
2022/05/30 12:23:48;;;;;;;5.07;2.00;;;;;;;24.97;44.40;99012.44;4955704;29;20034;-91
2022/05/30 12:26:14;;;;;;;5.68;1.90;;;;;;;25.06;43.80;99001.13;4930078;28;20035;-90
2022/05/30 12:28:39;;;;;;;8.43;2.03;;;;;;;25.30;43.48;99016.41;4913949;29;20022;-91
2022/05/30 12:31:06;;;;;;;3.55;1.70;;;;;;;25.32;43.80;99014.06;4947094;29;20027;-93